createdAt,value
2017-10-01T00:00:20.394Z,101487.13
2017-10-01T00:02:48.078Z,101483.91
2017-10-01T00:05:15.825Z,101480.28
2017-10-01T00:07:43.530Z,101489.09
2017-10-01T00:10:11.281Z,101484.66
2017-10-01T00:12:38.971Z,101488.68
2017-10-01T00:15:06.710Z,101489.77
2017-10-01T00:17:34.404Z,101486.13
2017-10-01T00:20:02.172Z,101487.95
2017-10-01T00:22:29.876Z,101494.69
2017-10-01T00:24:57.618Z,101490.56
2017-10-01T00:27:25.327Z,101491.05
2017-10-01T00:29:53.007Z,101494.98
2017-10-01T00:32:20.725Z,101496.80
2017-10-01T00:34:48.426Z,101503.30
2017-10-01T00:37:16.169Z,101511.47
2017-10-01T00:39:43.864Z,101512.45
2017-10-01T00:42:11.624Z,101515.82
2017-10-01T00:44:39.318Z,101515.97
2017-10-01T00:47:07.093Z,101516.23
2017-10-01T00:49:34.776Z,101523.54
2017-10-01T00:52:02.513Z,101523.72
2017-10-01T00:54:30.207Z,101529.73
2017-10-01T00:56:57.964Z,101534.66
2017-10-01T00:59:25.653Z,101528.23
2017-10-01T01:01:53.390Z,101534.99
2017-10-01T01:04:21.120Z,101536.95
2017-10-01T01:06:48.861Z,101540.41
2017-10-01T01:09:16.557Z,101547.17
2017-10-01T01:11:44.287Z,101545.78
2017-10-01T01:14:11.989Z,101548.31
2017-10-01T01:16:39.751Z,101549.30
2017-10-01T01:19:07.441Z,101552.01
2017-10-01T01:21:35.180Z,101556.77
2017-10-01T01:24:02.896Z,101560.89
2017-10-01T01:26:30.718Z,101561.31
2017-10-01T01:28:58.428Z,101568.45
2017-10-01T01:31:26.176Z,101572.00
2017-10-01T01:33:53.892Z,101572.48
2017-10-01T01:36:21.635Z,101574.61
2017-10-01T01:38:49.273Z,101570.32
2017-10-01T01:41:17.025Z,101568.42
2017-10-01T01:43:44.736Z,101572.05
2017-10-01T01:46:12.536Z,101571.04
2017-10-01T01:48:40.227Z,101576.25
2017-10-01T01:51:07.922Z,101576.81
2017-10-01T01:53:35.652Z,101584.80
2017-10-01T01:56:03.354Z,101584.95
2017-10-01T01:58:31.126Z,101592.36
2017-10-01T02:00:58.818Z,101588.02
2017-10-01T02:03:26.580Z,101594.75
2017-10-01T02:05:54.296Z,101593.27
2017-10-01T02:08:22.051Z,101590.53
2017-10-01T02:10:49.744Z,101601.57
2017-10-01T02:13:17.490Z,101604.02
2017-10-01T02:15:45.175Z,101605.00
2017-10-01T02:18:12.932Z,101604.44
2017-10-01T02:20:40.621Z,101605.23
2017-10-01T02:23:08.296Z,101616.91
2017-10-01T02:25:36.001Z,101618.49
2017-10-01T02:28:03.760Z,101613.61
2017-10-01T02:30:31.456Z,101620.37
2017-10-01T02:32:59.201Z,101617.95
2017-10-01T02:35:26.918Z,101621.36
2017-10-01T02:37:54.667Z,101631.45
2017-10-01T02:40:22.388Z,101627.43
2017-10-01T02:42:50.152Z,101628.56
2017-10-01T02:45:17.853Z,101630.53
2017-10-01T02:47:45.651Z,101632.82
2017-10-01T02:50:13.353Z,101636.66
2017-10-01T02:52:41.092Z,101645.47
2017-10-01T02:55:08.796Z,101650.36
2017-10-01T02:57:36.540Z,101648.54
2017-10-01T03:00:04.228Z,101647.70
2017-10-01T03:02:31.959Z,101655.54
2017-10-01T03:04:59.658Z,101655.77
2017-10-01T03:07:27.436Z,101660.95
2017-10-01T03:09:55.144Z,101661.49
2017-10-01T03:12:22.907Z,101650.36
2017-10-01T03:14:50.606Z,101651.81
2017-10-01T03:17:18.344Z,101655.74
2017-10-01T03:19:46.036Z,101659.38
2017-10-01T03:22:13.796Z,101652.67
2017-10-01T03:24:41.487Z,101652.23
2017-10-01T03:27:09.266Z,101656.73
2017-10-01T03:29:36.973Z,101657.89
2017-10-01T03:32:04.659Z,101665.59
2017-10-01T03:34:32.596Z,101670.92
2017-10-01T03:37:00.322Z,101671.52
2017-10-01T03:39:28.064Z,101670.69
2017-10-01T03:41:55.765Z,101679.41
2017-10-01T03:44:23.500Z,101685.00
2017-10-01T03:46:51.306Z,101686.46
2017-10-01T03:49:19.092Z,101686.05
2017-10-01T03:51:46.786Z,101696.08
2017-10-01T03:54:14.542Z,101693.70
2017-10-01T03:56:42.240Z,101697.71
2017-10-01T03:59:09.987Z,101696.45
2017-10-01T04:01:37.685Z,101702.62
2017-10-01T04:04:05.438Z,101701.27
2017-10-01T04:06:33.120Z,101701.69
2017-10-01T04:09:00.852Z,101697.22
2017-10-01T04:11:28.533Z,101701.89
2017-10-01T04:13:56.263Z,101691.50
2017-10-01T04:16:23.979Z,101696.56
2017-10-01T04:18:51.715Z,101696.05
2017-10-01T04:21:19.362Z,101704.67
2017-10-01T04:23:47.116Z,101700.48
2017-10-01T04:26:14.808Z,101706.08
2017-10-01T04:28:42.551Z,101704.27
2017-10-01T04:31:10.256Z,101708.22
2017-10-01T04:33:37.995Z,101716.28
2017-10-01T04:36:05.680Z,101719.23
2017-10-01T04:38:33.430Z,101718.16
2017-10-01T04:41:01.126Z,101720.53
2017-10-01T04:43:28.892Z,101724.46
2017-10-01T04:45:56.657Z,101723.23
2017-10-01T04:48:24.425Z,101724.64
2017-10-01T04:50:52.136Z,101728.41
2017-10-01T04:53:19.867Z,101729.95
2017-10-01T04:55:47.592Z,101726.09
2017-10-01T04:58:15.326Z,101731.27
2017-10-01T05:00:43.027Z,101738.31
2017-10-01T05:03:10.775Z,101742.98
2017-10-01T05:05:38.469Z,101740.64
2017-10-01T05:08:06.209Z,101745.31
2017-10-01T05:10:33.929Z,101747.17
2017-10-01T05:13:01.623Z,101756.33
2017-10-01T05:15:29.352Z,101754.41
2017-10-01T05:17:57.037Z,101765.65
2017-10-01T05:20:24.818Z,101768.08
2017-10-01T05:22:52.508Z,101764.63
2017-10-01T05:25:20.183Z,101765.65
2017-10-01T05:27:47.868Z,101766.31
2017-10-01T05:30:15.620Z,101772.08
2017-10-01T05:32:43.328Z,101767.52
2017-10-01T05:35:11.083Z,101770.04
2017-10-01T05:37:38.772Z,101771.76
2017-10-01T05:40:06.500Z,101773.16
2017-10-01T05:42:34.182Z,101771.76
2017-10-01T05:45:01.906Z,101775.53
2017-10-01T05:47:29.648Z,101774.80
2017-10-01T05:49:57.427Z,101783.59
2017-10-01T05:52:25.127Z,101788.48
2017-10-01T05:54:52.859Z,101787.23
2017-10-01T05:57:20.556Z,101791.84
2017-10-01T05:59:48.284Z,101800.08
2017-10-01T06:02:15.977Z,101795.62
2017-10-01T06:04:43.706Z,101802.98
2017-10-01T06:07:11.396Z,101804.94
2017-10-01T06:09:39.141Z,101811.92
2017-10-01T06:12:06.858Z,101813.33
2017-10-01T06:14:34.611Z,101816.81
2017-10-01T06:17:02.314Z,101815.09
2017-10-01T06:19:30.044Z,101817.33
2017-10-01T06:21:57.746Z,101825.67
2017-10-01T06:24:25.518Z,101828.75
2017-10-01T06:26:53.246Z,101828.75
2017-10-01T06:29:21.040Z,101834.48
2017-10-01T06:31:48.754Z,101832.48
2017-10-01T06:34:16.475Z,101838.87
2017-10-01T06:36:44.156Z,101836.77
2017-10-01T06:39:11.972Z,101837.32
2017-10-01T06:41:39.652Z,101840.91
2017-10-01T06:44:07.393Z,101842.68
2017-10-01T06:46:35.144Z,101850.60
2017-10-01T06:49:02.877Z,101853.87
2017-10-01T06:51:30.576Z,101849.72
2017-10-01T06:53:58.312Z,101849.95
2017-10-01T06:56:26.017Z,101855.37
2017-10-01T06:58:53.716Z,101854.38
2017-10-01T07:01:21.457Z,101853.36
2017-10-01T07:03:49.173Z,101855.16
2017-10-01T07:06:16.920Z,101855.39
2017-10-01T07:08:44.640Z,101860.63
2017-10-01T07:11:12.383Z,101861.66
2017-10-01T07:13:40.103Z,101861.01
2017-10-01T07:16:07.849Z,101868.88
2017-10-01T07:18:35.704Z,101877.27
2017-10-01T07:21:03.449Z,101877.17
2017-10-01T07:23:31.140Z,101877.84
2017-10-01T07:25:58.876Z,101877.27
2017-10-01T07:28:26.577Z,101882.41
2017-10-01T07:30:54.362Z,101882.36
2017-10-01T07:33:22.058Z,101885.84
2017-10-01T07:35:49.811Z,101886.36
2017-10-01T07:38:17.513Z,101888.73
2017-10-01T07:40:45.261Z,101885.83
2017-10-01T07:43:12.954Z,101889.47
2017-10-01T07:45:40.690Z,101890.20
2017-10-01T07:48:08.435Z,101891.04
2017-10-01T07:50:36.164Z,101892.77
2017-10-01T07:53:03.945Z,101892.48
2017-10-01T07:55:31.705Z,101898.17
2017-10-01T07:57:59.420Z,101896.78
2017-10-01T08:00:27.172Z,101900.09
2017-10-01T08:02:54.890Z,101898.30
2017-10-01T08:05:22.635Z,101904.55
2017-10-01T08:07:50.350Z,101901.09
2017-10-01T08:10:18.083Z,101905.55
2017-10-01T08:12:45.773Z,101908.03
2017-10-01T08:15:13.524Z,101910.92
2017-10-01T08:17:41.230Z,101909.90
2017-10-01T08:20:08.963Z,101913.04
2017-10-01T08:22:36.669Z,101916.31
2017-10-01T08:25:04.422Z,101911.67
2017-10-01T08:27:32.129Z,101914.81
2017-10-01T08:29:59.889Z,101916.20
2017-10-01T08:32:27.588Z,101919.91
2017-10-01T08:34:55.256Z,101921.09
2017-10-01T08:37:22.954Z,101919.61
2017-10-01T08:39:50.700Z,101917.06
2017-10-01T08:42:19.345Z,101913.86
2017-10-01T08:44:47.076Z,101917.27
2017-10-01T08:47:14.852Z,101921.78
2017-10-01T08:49:42.560Z,101929.53
2017-10-01T08:52:10.300Z,101922.96
2017-10-01T08:54:38.017Z,101929.62
2017-10-01T08:57:05.774Z,101928.08
2017-10-01T08:59:33.476Z,101926.52
2017-10-01T09:02:01.203Z,101930.05
2017-10-01T09:04:28.907Z,101931.84
2017-10-01T09:06:56.639Z,101934.71
2017-10-01T09:09:24.335Z,101933.33
2017-10-01T09:11:52.072Z,101932.64
2017-10-01T09:14:19.779Z,101935.94
2017-10-01T09:16:47.515Z,101941.19
2017-10-01T09:19:15.194Z,101938.44
2017-10-01T09:21:42.945Z,101942.88
2017-10-01T09:24:10.668Z,101940.38
2017-10-01T09:26:38.473Z,101936.94
2017-10-01T09:29:06.174Z,101933.55
2017-10-01T09:31:33.928Z,101928.09
2017-10-01T09:34:01.638Z,101930.55
2017-10-01T09:36:29.393Z,101923.27
2017-10-01T09:38:57.076Z,101916.84
2017-10-01T09:41:24.833Z,101923.70
2017-10-01T09:43:52.557Z,101923.36
2017-10-01T09:46:20.357Z,101924.69
2017-10-01T09:48:48.043Z,101927.91
2017-10-01T09:51:15.797Z,101929.09
2017-10-01T09:53:43.515Z,101936.38
2017-10-01T09:56:11.278Z,101940.23
2017-10-01T09:58:38.979Z,101936.17
2017-10-01T10:01:07.452Z,101934.23
2017-10-01T10:03:35.160Z,101937.88
2017-10-01T10:06:02.836Z,101936.22
2017-10-01T10:08:30.519Z,101932.68
2017-10-01T10:10:58.255Z,101924.02
2017-10-01T10:13:25.960Z,101923.93
2017-10-01T10:15:53.728Z,101935.09
2017-10-01T10:18:21.443Z,101928.47
2017-10-01T10:20:49.201Z,101938.00
2017-10-01T10:23:16.916Z,101934.84
2017-10-01T10:25:44.660Z,101939.55
2017-10-01T10:28:12.350Z,101937.65
2017-10-01T10:30:40.120Z,101946.34
2017-10-01T10:33:07.830Z,101952.31
2017-10-01T10:35:35.587Z,101952.88
2017-10-01T10:38:03.307Z,101949.72
2017-10-01T10:40:30.931Z,101957.52
2017-10-01T10:42:58.661Z,101950.41
2017-10-01T10:45:26.365Z,101949.25
2017-10-01T10:47:54.145Z,101947.38
2017-10-01T10:50:21.847Z,101944.31
2017-10-01T10:52:49.621Z,101943.71
2017-10-01T10:55:17.311Z,101944.84
2017-10-01T10:57:45.046Z,101945.00
2017-10-01T11:00:12.764Z,101943.81
2017-10-01T11:02:40.523Z,101940.12
2017-10-01T11:05:08.219Z,101943.52
2017-10-01T11:07:35.958Z,101944.54
2017-10-01T11:10:03.646Z,101938.64
2017-10-01T11:12:31.403Z,101950.28
2017-10-01T11:14:59.113Z,101946.05
2017-10-01T11:17:26.860Z,101940.97
2017-10-01T11:19:54.561Z,101938.66
2017-10-01T11:22:22.291Z,101937.64
2017-10-01T11:24:49.988Z,101936.45
2017-10-01T11:27:17.736Z,101928.33
2017-10-01T11:29:45.424Z,101934.80
2017-10-01T11:32:13.160Z,101933.21
2017-10-01T11:34:40.868Z,101933.98
2017-10-01T11:37:08.632Z,101934.98
2017-10-01T11:39:36.323Z,101935.46
2017-10-01T11:42:04.061Z,101936.62
2017-10-01T11:44:31.763Z,101942.02
2017-10-01T11:46:59.555Z,101940.13
2017-10-01T11:49:27.283Z,101938.13
2017-10-01T11:51:55.010Z,101941.34
2017-10-01T11:54:22.712Z,101932.89
2017-10-01T11:56:50.455Z,101931.78
2017-10-01T11:59:18.152Z,101929.33
2017-10-01T12:01:45.912Z,101927.03
2017-10-01T12:04:13.625Z,101929.11
2017-10-01T12:06:41.393Z,101926.95
2017-10-01T12:09:09.081Z,101931.22
2017-10-01T12:11:36.829Z,101932.83
2017-10-01T12:14:04.549Z,101929.55
2017-10-01T12:16:32.322Z,101937.41
2017-10-01T12:19:00.008Z,101943.36
2017-10-01T12:21:27.780Z,101942.27
2017-10-01T12:23:55.420Z,101941.66
2017-10-01T12:26:23.197Z,101938.83
2017-10-01T12:28:50.960Z,101943.42
2017-10-01T12:31:18.695Z,101949.12
2017-10-01T12:33:46.424Z,101948.45
2017-10-01T12:36:14.140Z,101949.09
2017-10-01T12:38:41.887Z,101941.59
2017-10-01T12:41:09.589Z,101945.31
2017-10-01T12:43:37.332Z,101939.43
2017-10-01T12:46:05.069Z,101934.43
2017-10-01T12:48:32.803Z,101927.16
2017-10-01T12:51:00.522Z,101930.58
2017-10-01T12:53:28.293Z,101932.85
2017-10-01T12:55:56.032Z,101936.51
2017-10-01T12:58:23.820Z,101937.62
2017-10-01T13:00:56.303Z,101940.24
2017-10-01T13:03:24.049Z,101937.58
2017-10-01T13:05:52.249Z,101933.86
2017-10-01T13:08:20.029Z,101937.00
2017-10-01T13:10:47.725Z,101938.63
2017-10-01T13:13:15.463Z,101937.81
2017-10-01T13:15:43.149Z,101939.20
2017-10-01T13:18:10.912Z,101939.16
2017-10-01T13:20:38.602Z,101934.52
2017-10-01T13:23:06.269Z,101933.36
2017-10-01T13:25:33.943Z,101930.86
2017-10-01T13:28:05.509Z,101927.41
2017-10-01T13:30:33.184Z,101934.50
2017-10-01T13:33:00.945Z,101928.05
2017-10-01T13:35:28.639Z,101934.45
2017-10-01T13:37:56.425Z,101931.80
2017-10-01T13:40:24.105Z,101928.81
2017-10-01T13:42:51.865Z,101927.36
2017-10-01T13:45:19.579Z,101931.80
2017-10-01T13:47:47.495Z,101923.48
2017-10-01T13:50:15.191Z,101927.41
2017-10-01T13:52:42.925Z,101930.27
2017-10-01T13:55:10.561Z,101926.53
2017-10-01T13:57:38.323Z,101922.27
2017-10-01T14:00:06.019Z,101922.34
2017-10-01T14:02:33.772Z,101923.61
2017-10-01T14:05:01.510Z,101921.89
2017-10-01T14:07:29.256Z,101924.45
2017-10-01T14:09:56.948Z,101922.67
2017-10-01T14:12:24.684Z,101926.72
2017-10-01T14:14:52.406Z,101923.13
2017-10-01T14:17:20.126Z,101926.14
2017-10-01T14:19:47.810Z,101921.87
2017-10-01T14:22:15.556Z,101916.73
2017-10-01T14:24:43.304Z,101918.59
2017-10-01T14:27:10.939Z,101922.13
2017-10-01T14:29:38.676Z,101919.55
2017-10-01T14:32:06.372Z,101910.36
2017-10-01T14:34:34.132Z,101903.06
2017-10-01T14:37:01.819Z,101907.85
2017-10-01T14:39:29.600Z,101899.41
2017-10-01T14:41:57.281Z,101902.25
2017-10-01T14:44:25.038Z,101906.33
2017-10-01T14:46:52.800Z,101905.48
2017-10-01T14:49:20.533Z,101902.16
2017-10-01T14:51:48.239Z,101903.98
2017-10-01T14:54:15.962Z,101896.64
2017-10-01T14:56:43.667Z,101890.92
2017-10-01T14:59:11.410Z,101890.01
2017-10-01T15:01:39.112Z,101893.66
2017-10-01T15:04:06.871Z,101892.13
2017-10-01T15:06:34.558Z,101888.35
2017-10-01T15:09:02.233Z,101891.75
2017-10-01T15:11:29.945Z,101891.13
2017-10-01T15:13:57.695Z,101889.83
2017-10-01T15:16:25.400Z,101890.58
2017-10-01T15:18:53.145Z,101889.09
2017-10-01T15:21:20.839Z,101884.79
2017-10-01T15:23:48.604Z,101881.56
2017-10-01T15:26:16.312Z,101878.34
2017-10-01T15:28:44.085Z,101881.73
2017-10-01T15:31:11.781Z,101878.83
2017-10-01T15:33:39.532Z,101884.70
2017-10-01T15:36:07.234Z,101878.98
2017-10-01T15:38:34.980Z,101882.78
2017-10-01T15:41:02.687Z,101886.09
2017-10-01T15:43:30.436Z,101881.45
2017-10-01T15:45:58.172Z,101884.77
2017-10-01T15:48:25.942Z,101883.92
2017-10-01T15:50:53.632Z,101884.84
2017-10-01T15:53:21.368Z,101883.25
2017-10-01T15:55:49.065Z,101887.87
2017-10-01T15:58:16.807Z,101882.82
2017-10-01T16:00:44.487Z,101882.41
2017-10-01T16:03:12.215Z,101887.97
2017-10-01T16:05:39.915Z,101882.42
2017-10-01T16:08:07.692Z,101883.45
2017-10-01T16:10:35.384Z,101882.56
2017-10-01T16:13:03.128Z,101890.55
2017-10-01T16:15:30.880Z,101888.70
2017-10-01T16:17:58.569Z,101883.77
2017-10-01T16:20:26.315Z,101885.27
2017-10-01T16:22:54.012Z,101889.44
2017-10-01T16:25:21.759Z,101882.41
2017-10-01T16:27:49.582Z,101880.84
2017-10-01T16:30:17.343Z,101883.22
2017-10-01T16:32:45.042Z,101887.78
2017-10-01T16:35:12.798Z,101891.31
2017-10-01T16:37:40.493Z,101890.80
2017-10-01T16:40:08.241Z,101889.55
2017-10-01T16:42:35.938Z,101893.89
2017-10-01T16:45:03.705Z,101893.77
2017-10-01T16:47:31.457Z,101895.48
2017-10-01T16:49:59.204Z,101895.23
2017-10-01T16:52:26.896Z,101894.41
2017-10-01T16:54:54.626Z,101901.86
2017-10-01T16:57:22.337Z,101897.36
2017-10-01T16:59:50.073Z,101894.20
2017-10-01T17:02:17.756Z,101894.77
2017-10-01T17:04:45.517Z,101900.34
2017-10-01T17:07:13.221Z,101897.39
2017-10-01T17:09:40.998Z,101900.02
2017-10-01T17:12:08.689Z,101901.31
2017-10-01T17:14:36.436Z,101898.77
2017-10-01T17:17:04.117Z,101898.39
2017-10-01T17:19:35.242Z,101893.11
2017-10-01T17:22:02.947Z,101896.50
2017-10-01T17:24:30.705Z,101892.76
2017-10-01T17:26:58.408Z,101898.61
2017-10-01T17:29:26.165Z,101902.36
2017-10-01T17:31:53.865Z,101899.05
2017-10-01T17:34:21.642Z,101910.30
2017-10-01T17:36:49.337Z,101905.56
2017-10-01T17:39:17.070Z,101902.70
2017-10-01T17:41:44.775Z,101899.95
2017-10-01T17:44:12.504Z,101900.78
2017-10-01T17:46:40.248Z,101898.17
2017-10-01T17:49:07.983Z,101903.55
2017-10-01T17:51:35.657Z,101900.83
2017-10-01T17:54:03.413Z,101899.66
2017-10-01T17:56:31.118Z,101902.41
2017-10-01T17:58:58.888Z,101890.48
2017-10-01T18:01:26.584Z,101888.73
2017-10-01T18:03:54.309Z,101882.11
2017-10-01T18:06:22.052Z,101883.57
2017-10-01T18:08:49.733Z,101885.11
2017-10-01T18:11:17.467Z,101876.03
2017-10-01T18:13:45.165Z,101873.87
2017-10-01T18:16:12.904Z,101876.84
2017-10-01T18:18:40.613Z,101875.20
2017-10-01T18:21:09.264Z,101874.63
2017-10-01T18:23:36.945Z,101867.66
2017-10-01T18:26:04.680Z,101868.07
2017-10-01T18:28:32.367Z,101863.60
2017-10-01T18:31:00.104Z,101862.91
2017-10-01T18:33:27.787Z,101866.25
2017-10-01T18:35:55.515Z,101861.61
2017-10-01T18:38:23.209Z,101862.80
2017-10-01T18:40:50.955Z,101858.09
2017-10-01T18:43:18.648Z,101858.30
2017-10-01T18:45:46.384Z,101862.88
2017-10-01T18:48:14.111Z,101868.42
2017-10-01T18:50:41.840Z,101869.92
2017-10-01T18:53:09.544Z,101867.23
2017-10-01T18:55:37.285Z,101872.72
2017-10-01T18:58:05.001Z,101870.80
2017-10-01T19:00:32.767Z,101865.25
2017-10-01T19:03:00.483Z,101868.36
2017-10-01T19:05:28.216Z,101872.89
2017-10-01T19:07:55.898Z,101880.50
2017-10-01T19:10:23.643Z,101873.38
2017-10-01T19:12:51.404Z,101866.44
2017-10-01T19:15:19.215Z,101865.49
2017-10-01T19:17:46.920Z,101861.45
2017-10-01T19:20:14.678Z,101871.22
2017-10-01T19:22:42.397Z,101871.50
2017-10-01T19:25:10.157Z,101864.83
2017-10-01T19:27:37.868Z,101861.72
2017-10-01T19:30:05.606Z,101870.37
2017-10-01T19:32:33.348Z,101856.17
2017-10-01T19:35:01.092Z,101859.11
2017-10-01T19:37:28.809Z,101854.39
2017-10-01T19:39:56.569Z,101861.27
2017-10-01T19:42:24.259Z,101852.09
2017-10-01T19:44:51.962Z,101856.17
2017-10-01T19:47:19.753Z,101851.29
2017-10-01T19:49:47.443Z,101858.69
2017-10-01T19:52:15.176Z,101857.36
2017-10-01T19:54:42.862Z,101864.47
2017-10-01T19:57:10.604Z,101863.41
2017-10-01T19:59:38.312Z,101867.20
2017-10-01T20:02:06.057Z,101861.64
2017-10-01T20:04:33.751Z,101864.45
2017-10-01T20:07:01.513Z,101853.41
2017-10-01T20:09:29.227Z,101846.30
2017-10-01T20:11:56.952Z,101851.64
2017-10-01T20:14:24.648Z,101852.42
2017-10-01T20:16:52.386Z,101850.20
2017-10-01T20:19:20.096Z,101851.09
2017-10-01T20:21:47.835Z,101847.49
2017-10-01T20:24:15.549Z,101846.48
2017-10-01T20:26:43.289Z,101843.81
2017-10-01T20:29:10.982Z,101841.27
2017-10-01T20:31:38.713Z,101839.42
2017-10-01T20:34:06.434Z,101829.11
2017-10-01T20:36:34.203Z,101817.92
2017-10-01T20:39:01.948Z,101818.44
2017-10-01T20:41:29.666Z,101808.78
2017-10-01T20:43:57.371Z,101802.85
2017-10-01T20:46:25.161Z,101803.10
2017-10-01T20:48:52.880Z,101806.97
2017-10-01T20:51:20.610Z,101801.29
2017-10-01T20:53:48.312Z,101802.88
2017-10-01T20:56:16.056Z,101798.81
2017-10-01T20:58:43.759Z,101797.52
2017-10-01T21:01:11.490Z,101804.39
2017-10-01T21:03:39.173Z,101797.83
2017-10-01T21:06:06.911Z,101797.10
2017-10-01T21:08:34.609Z,101800.73
2017-10-01T21:11:02.354Z,101794.06
2017-10-01T21:13:30.060Z,101787.83
2017-10-01T21:15:57.789Z,101780.74
2017-10-01T21:18:25.488Z,101776.88
2017-10-01T21:20:53.235Z,101778.55
2017-10-01T21:23:20.939Z,101777.19
2017-10-01T21:25:48.708Z,101769.16
2017-10-01T21:28:16.395Z,101766.41
2017-10-01T21:30:44.069Z,101771.11
2017-10-01T21:33:11.818Z,101764.28
2017-10-01T21:35:39.526Z,101763.75
2017-10-01T21:38:07.279Z,101768.36
2017-10-01T21:40:34.978Z,101776.05
2017-10-01T21:43:02.716Z,101767.86
2017-10-01T21:45:30.343Z,101767.02
2017-10-01T21:48:03.225Z,101755.63
2017-10-01T21:50:30.944Z,101757.96
2017-10-01T21:52:58.677Z,101756.67
2017-10-01T21:55:26.371Z,101755.70
2017-10-01T21:57:54.120Z,101745.80
2017-10-01T22:00:21.817Z,101748.20
2017-10-01T22:02:49.555Z,101741.38
2017-10-01T22:05:17.232Z,101728.93
2017-10-01T22:07:44.963Z,101725.34
2017-10-01T22:10:12.660Z,101719.77
2017-10-01T22:12:40.345Z,101717.56
2017-10-01T22:15:08.056Z,101715.44
2017-10-01T22:17:35.803Z,101711.50
2017-10-01T22:20:03.508Z,101708.44
2017-10-01T22:22:31.258Z,101702.23
2017-10-01T22:24:58.946Z,101699.47
2017-10-01T22:27:26.701Z,101701.28
2017-10-01T22:29:54.387Z,101692.54
2017-10-01T22:32:22.124Z,101690.17
2017-10-01T22:34:49.813Z,101678.84
2017-10-01T22:37:17.562Z,101686.20
2017-10-01T22:39:45.253Z,101680.94
2017-10-01T22:42:13.002Z,101684.11
2017-10-01T22:44:40.706Z,101682.13
2017-10-01T22:47:09.168Z,101682.67
2017-10-01T22:49:36.848Z,101681.11
2017-10-01T22:52:04.584Z,101685.50
2017-10-01T22:54:33.307Z,101682.85
2017-10-01T22:57:01.073Z,101683.83
2017-10-01T22:59:28.761Z,101687.87
2017-10-01T23:01:56.526Z,101682.39
2017-10-01T23:04:24.213Z,101679.19
2017-10-01T23:06:51.951Z,101673.92
2017-10-01T23:09:19.644Z,101663.78
2017-10-01T23:11:47.321Z,101663.51
2017-10-01T23:14:15.028Z,101646.50
2017-10-01T23:16:42.780Z,101635.67
2017-10-01T23:19:10.528Z,101628.45
2017-10-01T23:21:38.216Z,101627.52
2017-10-01T23:24:05.943Z,101619.33
2017-10-01T23:26:33.639Z,101618.11
2017-10-01T23:29:01.368Z,101625.59
2017-10-01T23:31:29.188Z,101623.68
2017-10-01T23:33:56.916Z,101620.89
2017-10-01T23:36:24.613Z,101616.47
2017-10-01T23:38:52.342Z,101616.50
2017-10-01T23:41:20.025Z,101618.98
2017-10-01T23:43:47.768Z,101614.23
2017-10-01T23:46:15.527Z,101616.75
2017-10-01T23:48:43.252Z,101612.32
2017-10-01T23:51:10.944Z,101611.31
2017-10-01T23:53:38.683Z,101600.30
2017-10-01T23:56:06.407Z,101599.29
2017-10-01T23:58:34.140Z,101586.30
